sensor_id;sensor_type;location;lat;lon;timestamp;temperature;humidity
9497;DHT22;4786;51.270;4.456;2023-06-14T00:00:31;21.30;99.90
9497;DHT22;4786;51.270;4.456;2023-06-14T00:02:57;21.40;99.90
9497;DHT22;4786;51.270;4.456;2023-06-14T00:05:23;21.30;99.90
9497;DHT22;4786;51.270;4.456;2023-06-14T00:07:50;21.20;99.90
9497;DHT22;4786;51.270;4.456;2023-06-14T00:10:19;21.20;99.90
9497;DHT22;4786;51.270;4.456;2023-06-14T00:12:45;21.20;99.90
9497;DHT22;4786;51.270;4.456;2023-06-14T00:15:10;21.10;99.90
9497;DHT22;4786;51.270;4.456;2023-06-14T00:17:36;21.10;99.90
9497;DHT22;4786;51.270;4.456;2023-06-14T00:20:05;21.10;99.90
9497;DHT22;4786;51.270;4.456;2023-06-14T00:22:33;21.10;99.90
9497;DHT22;4786;51.270;4.456;2023-06-14T00:25:00;21.00;99.90
9497;DHT22;4786;51.270;4.456;2023-06-14T00:27:25;21.00;99.90
9497;DHT22;4786;51.270;4.456;2023-06-14T00:29:51;21.10;99.90
9497;DHT22;4786;51.270;4.456;2023-06-14T00:32:18;21.00;99.90
9497;DHT22;4786;51.270;4.456;2023-06-14T00:34:44;21.00;99.90
9497;DHT22;4786;51.270;4.456;2023-06-14T00:37:10;21.00;99.90
9497;DHT22;4786;51.270;4.456;2023-06-14T00:39:35;21.00;99.90
9497;DHT22;4786;51.270;4.456;2023-06-14T00:42:01;21.00;99.90
9497;DHT22;4786;51.270;4.456;2023-06-14T00:44:27;21.10;99.90
9497;DHT22;4786;51.270;4.456;2023-06-14T00:46:53;21.00;99.90
9497;DHT22;4786;51.270;4.456;2023-06-14T00:49:20;21.00;99.90
9497;DHT22;4786;51.270;4.456;2023-06-14T00:51:46;20.90;99.90
9497;DHT22;4786;51.270;4.456;2023-06-14T00:54:12;21.00;99.90
9497;DHT22;4786;51.270;4.456;2023-06-14T00:56:38;20.90;99.90
9497;DHT22;4786;51.270;4.456;2023-06-14T00:59:05;20.80;99.90
9497;DHT22;4786;51.270;4.456;2023-06-14T01:01:32;20.80;99.90
9497;DHT22;4786;51.270;4.456;2023-06-14T01:04:00;20.80;99.90
9497;DHT22;4786;51.270;4.456;2023-06-14T01:09:32;20.60;99.90
9497;DHT22;4786;51.270;4.456;2023-06-14T01:15:01;20.50;99.90
9497;DHT22;4786;51.270;4.456;2023-06-14T01:17:27;20.50;99.90
9497;DHT22;4786;51.270;4.456;2023-06-14T01:20:03;20.50;99.90
9497;DHT22;4786;51.270;4.456;2023-06-14T01:22:35;20.50;99.70
9497;DHT22;4786;51.270;4.456;2023-06-14T01:25:01;20.50;99.90
9497;DHT22;4786;51.270;4.456;2023-06-14T01:27:27;20.50;99.80
9497;DHT22;4786;51.270;4.456;2023-06-14T01:29:58;20.40;99.40
9497;DHT22;4786;51.270;4.456;2023-06-14T01:32:27;20.30;99.20
9497;DHT22;4786;51.270;4.456;2023-06-14T01:34:54;20.40;99.20
9497;DHT22;4786;51.270;4.456;2023-06-14T01:37:21;20.40;98.90
9497;DHT22;4786;51.270;4.456;2023-06-14T01:39:48;20.30;98.40
9497;DHT22;4786;51.270;4.456;2023-06-14T01:42:36;20.30;98.70
9497;DHT22;4786;51.270;4.456;2023-06-14T01:45:05;20.20;98.00
9497;DHT22;4786;51.270;4.456;2023-06-14T01:47:34;20.20;98.00
9497;DHT22;4786;51.270;4.456;2023-06-14T01:50:02;20.10;98.10
9497;DHT22;4786;51.270;4.456;2023-06-14T01:52:29;19.90;97.90
9497;DHT22;4786;51.270;4.456;2023-06-14T01:54:54;20.00;98.10
9497;DHT22;4786;51.270;4.456;2023-06-14T01:57:22;20.00;97.70
9497;DHT22;4786;51.270;4.456;2023-06-14T01:59:48;20.00;97.40
9497;DHT22;4786;51.270;4.456;2023-06-14T02:02:15;20.00;97.20
9497;DHT22;4786;51.270;4.456;2023-06-14T02:04:41;20.00;96.80
9497;DHT22;4786;51.270;4.456;2023-06-14T02:07:07;19.90;96.60
9497;DHT22;4786;51.270;4.456;2023-06-14T02:09:34;19.80;96.70
9497;DHT22;4786;51.270;4.456;2023-06-14T02:12:01;19.90;96.70
9497;DHT22;4786;51.270;4.456;2023-06-14T02:14:27;19.90;96.50
9497;DHT22;4786;51.270;4.456;2023-06-14T02:16:53;19.90;96.40
9497;DHT22;4786;51.270;4.456;2023-06-14T02:19:20;19.80;96.00
9497;DHT22;4786;51.270;4.456;2023-06-14T02:21:46;19.70;95.70
9497;DHT22;4786;51.270;4.456;2023-06-14T02:24:13;19.80;96.00
9497;DHT22;4786;51.270;4.456;2023-06-14T02:26:39;19.70;95.80
9497;DHT22;4786;51.270;4.456;2023-06-14T02:29:07;19.80;95.70
9497;DHT22;4786;51.270;4.456;2023-06-14T02:31:35;19.70;95.20
9497;DHT22;4786;51.270;4.456;2023-06-14T02:34:01;19.70;95.30
9497;DHT22;4786;51.270;4.456;2023-06-14T02:36:27;19.70;95.00
9497;DHT22;4786;51.270;4.456;2023-06-14T02:38:54;19.70;95.00
9497;DHT22;4786;51.270;4.456;2023-06-14T02:41:25;19.70;95.00
9497;DHT22;4786;51.270;4.456;2023-06-14T02:43:52;19.70;95.00
9497;DHT22;4786;51.270;4.456;2023-06-14T02:46:17;19.70;95.00
9497;DHT22;4786;51.270;4.456;2023-06-14T02:48:44;19.80;94.80
9497;DHT22;4786;51.270;4.456;2023-06-14T02:51:10;19.70;94.90
9497;DHT22;4786;51.270;4.456;2023-06-14T02:53:36;19.70;94.80
9497;DHT22;4786;51.270;4.456;2023-06-14T02:56:03;19.70;95.00
9497;DHT22;4786;51.270;4.456;2023-06-14T02:58:31;19.70;94.80
9497;DHT22;4786;51.270;4.456;2023-06-14T03:00:57;19.60;94.60
9497;DHT22;4786;51.270;4.456;2023-06-14T03:03:29;19.60;94.80
9497;DHT22;4786;51.270;4.456;2023-06-14T03:05:55;19.30;94.80
9497;DHT22;4786;51.270;4.456;2023-06-14T03:08:21;19.40;94.90
9497;DHT22;4786;51.270;4.456;2023-06-14T03:10:53;19.40;94.90
9497;DHT22;4786;51.270;4.456;2023-06-14T03:13:19;19.40;94.80
9497;DHT22;4786;51.270;4.456;2023-06-14T03:15:48;19.40;94.60
9497;DHT22;4786;51.270;4.456;2023-06-14T03:18:16;19.40;94.70
9497;DHT22;4786;51.270;4.456;2023-06-14T03:20:41;19.40;94.80
9497;DHT22;4786;51.270;4.456;2023-06-14T03:23:11;19.40;94.70
9497;DHT22;4786;51.270;4.456;2023-06-14T03:25:37;19.40;94.70
9497;DHT22;4786;51.270;4.456;2023-06-14T03:28:04;19.40;94.70
9497;DHT22;4786;51.270;4.456;2023-06-14T03:30:30;19.30;94.70
9497;DHT22;4786;51.270;4.456;2023-06-14T03:32:57;19.30;94.70
9497;DHT22;4786;51.270;4.456;2023-06-14T03:35:23;19.20;94.70
9497;DHT22;4786;51.270;4.456;2023-06-14T03:37:49;19.20;94.60
9497;DHT22;4786;51.270;4.456;2023-06-14T03:40:18;19.20;94.60
9497;DHT22;4786;51.270;4.456;2023-06-14T03:42:43;19.10;94.70
9497;DHT22;4786;51.270;4.456;2023-06-14T03:45:10;19.10;95.30
9497;DHT22;4786;51.270;4.456;2023-06-14T03:47:36;19.20;94.80
9497;DHT22;4786;51.270;4.456;2023-06-14T03:50:05;19.10;94.80
9497;DHT22;4786;51.270;4.456;2023-06-14T03:52:31;19.20;94.80
9497;DHT22;4786;51.270;4.456;2023-06-14T03:54:58;19.20;94.70
9497;DHT22;4786;51.270;4.456;2023-06-14T03:57:25;19.20;94.80
9497;DHT22;4786;51.270;4.456;2023-06-14T03:59:52;19.30;94.70
9497;DHT22;4786;51.270;4.456;2023-06-14T04:02:18;19.20;94.50
9497;DHT22;4786;51.270;4.456;2023-06-14T04:04:45;19.20;94.70
9497;DHT22;4786;51.270;4.456;2023-06-14T04:07:12;19.20;94.60
9497;DHT22;4786;51.270;4.456;2023-06-14T04:09:39;19.10;94.80
9497;DHT22;4786;51.270;4.456;2023-06-14T04:12:06;19.00;94.80
9497;DHT22;4786;51.270;4.456;2023-06-14T04:14:34;19.00;95.10
9497;DHT22;4786;51.270;4.456;2023-06-14T04:17:00;19.00;95.30
9497;DHT22;4786;51.270;4.456;2023-06-14T04:19:27;19.00;95.60
9497;DHT22;4786;51.270;4.456;2023-06-14T04:21:52;19.10;95.20
9497;DHT22;4786;51.270;4.456;2023-06-14T04:24:19;19.10;95.00
9497;DHT22;4786;51.270;4.456;2023-06-14T04:26:45;19.10;95.30
9497;DHT22;4786;51.270;4.456;2023-06-14T04:29:11;19.10;95.20
9497;DHT22;4786;51.270;4.456;2023-06-14T04:31:43;19.10;95.20
9497;DHT22;4786;51.270;4.456;2023-06-14T04:34:10;19.20;95.50
9497;DHT22;4786;51.270;4.456;2023-06-14T04:36:42;19.20;95.50
9497;DHT22;4786;51.270;4.456;2023-06-14T04:39:22;19.20;95.40
9497;DHT22;4786;51.270;4.456;2023-06-14T04:41:48;19.30;95.90
9497;DHT22;4786;51.270;4.456;2023-06-14T04:44:18;19.40;95.90
9497;DHT22;4786;51.270;4.456;2023-06-14T04:46:47;19.30;95.50
9497;DHT22;4786;51.270;4.456;2023-06-14T04:49:14;19.40;95.90
9497;DHT22;4786;51.270;4.456;2023-06-14T04:51:41;19.50;95.60
9497;DHT22;4786;51.270;4.456;2023-06-14T04:54:08;19.60;95.70
9497;DHT22;4786;51.270;4.456;2023-06-14T04:56:36;19.70;95.90
9497;DHT22;4786;51.270;4.456;2023-06-14T04:59:03;19.80;95.40
9497;DHT22;4786;51.270;4.456;2023-06-14T05:01:33;19.80;95.60
9497;DHT22;4786;51.270;4.456;2023-06-14T05:03:59;19.90;95.60
9497;DHT22;4786;51.270;4.456;2023-06-14T05:06:25;19.90;96.10
9497;DHT22;4786;51.270;4.456;2023-06-14T05:08:53;19.90;96.30
9497;DHT22;4786;51.270;4.456;2023-06-14T05:11:19;20.10;96.10
9497;DHT22;4786;51.270;4.456;2023-06-14T05:13:45;20.20;96.20
9497;DHT22;4786;51.270;4.456;2023-06-14T05:16:13;20.40;95.60
9497;DHT22;4786;51.270;4.456;2023-06-14T05:18:41;20.80;95.80
9497;DHT22;4786;51.270;4.456;2023-06-14T05:21:06;21.80;95.60
9497;DHT22;4786;51.270;4.456;2023-06-14T05:23:32;23.00;93.90
9497;DHT22;4786;51.270;4.456;2023-06-14T05:25:58;24.40;92.20
9497;DHT22;4786;51.270;4.456;2023-06-14T05:28:24;25.90;88.80
9497;DHT22;4786;51.270;4.456;2023-06-14T05:30:51;27.10;84.20
9497;DHT22;4786;51.270;4.456;2023-06-14T05:33:17;28.10;78.00
9497;DHT22;4786;51.270;4.456;2023-06-14T05:35:43;29.00;75.30
9497;DHT22;4786;51.270;4.456;2023-06-14T05:38:09;29.80;72.00
9497;DHT22;4786;51.270;4.456;2023-06-14T05:40:35;30.60;68.30
9497;DHT22;4786;51.270;4.456;2023-06-14T05:43:00;31.00;66.60
9497;DHT22;4786;51.270;4.456;2023-06-14T05:45:26;31.80;65.50
9497;DHT22;4786;51.270;4.456;2023-06-14T05:47:52;32.50;62.30
9497;DHT22;4786;51.270;4.456;2023-06-14T05:50:20;33.00;60.80
9497;DHT22;4786;51.270;4.456;2023-06-14T05:52:46;33.40;60.80
9497;DHT22;4786;51.270;4.456;2023-06-14T05:55:11;33.60;56.80
9497;DHT22;4786;51.270;4.456;2023-06-14T05:57:38;34.00;55.10
9497;DHT22;4786;51.270;4.456;2023-06-14T06:00:06;34.30;55.60
9497;DHT22;4786;51.270;4.456;2023-06-14T06:02:44;34.30;53.80
9497;DHT22;4786;51.270;4.456;2023-06-14T06:05:10;35.00;53.20
9497;DHT22;4786;51.270;4.456;2023-06-14T06:07:37;35.20;51.50
9497;DHT22;4786;51.270;4.456;2023-06-14T06:10:04;35.10;50.00
9497;DHT22;4786;51.270;4.456;2023-06-14T06:12:30;34.60;50.80
9497;DHT22;4786;51.270;4.456;2023-06-14T06:14:56;34.80;52.00
9497;DHT22;4786;51.270;4.456;2023-06-14T06:17:23;34.90;49.80
9497;DHT22;4786;51.270;4.456;2023-06-14T06:19:48;35.20;50.60
9497;DHT22;4786;51.270;4.456;2023-06-14T06:22:15;35.80;50.20
9497;DHT22;4786;51.270;4.456;2023-06-14T06:24:41;36.50;49.60
9497;DHT22;4786;51.270;4.456;2023-06-14T06:27:07;36.90;49.30
9497;DHT22;4786;51.270;4.456;2023-06-14T06:29:38;37.00;47.90
9497;DHT22;4786;51.270;4.456;2023-06-14T06:32:04;37.00;47.80
9497;DHT22;4786;51.270;4.456;2023-06-14T06:34:30;37.40;46.10
9497;DHT22;4786;51.270;4.456;2023-06-14T06:36:56;37.20;45.90
9497;DHT22;4786;51.270;4.456;2023-06-14T06:39:22;36.90;46.20
9497;DHT22;4786;51.270;4.456;2023-06-14T06:41:48;37.40;46.80
9497;DHT22;4786;51.270;4.456;2023-06-14T06:44:14;36.70;44.10
9497;DHT22;4786;51.270;4.456;2023-06-14T06:46:40;36.60;46.30
9497;DHT22;4786;51.270;4.456;2023-06-14T06:49:07;37.00;46.80
9497;DHT22;4786;51.270;4.456;2023-06-14T06:51:35;36.90;46.10
9497;DHT22;4786;51.270;4.456;2023-06-14T06:54:01;37.30;45.30
9497;DHT22;4786;51.270;4.456;2023-06-14T06:56:26;37.30;44.60
9497;DHT22;4786;51.270;4.456;2023-06-14T06:58:52;37.10;44.90
9497;DHT22;4786;51.270;4.456;2023-06-14T07:01:18;36.80;44.70
9497;DHT22;4786;51.270;4.456;2023-06-14T07:03:46;36.60;45.30
9497;DHT22;4786;51.270;4.456;2023-06-14T07:06:13;36.60;47.00
9497;DHT22;4786;51.270;4.456;2023-06-14T07:08:39;36.70;46.00
9497;DHT22;4786;51.270;4.456;2023-06-14T07:11:05;36.70;45.60
9497;DHT22;4786;51.270;4.456;2023-06-14T07:13:31;36.70;46.00
9497;DHT22;4786;51.270;4.456;2023-06-14T07:15:58;36.60;46.20
9497;DHT22;4786;51.270;4.456;2023-06-14T07:18:26;36.30;46.90
9497;DHT22;4786;51.270;4.456;2023-06-14T07:20:52;36.10;47.90
9497;DHT22;4786;51.270;4.456;2023-06-14T07:23:19;35.30;46.90
9497;DHT22;4786;51.270;4.456;2023-06-14T07:25:46;35.10;48.80
9497;DHT22;4786;51.270;4.456;2023-06-14T07:28:12;35.10;49.60
9497;DHT22;4786;51.270;4.456;2023-06-14T07:30:41;34.50;48.20
9497;DHT22;4786;51.270;4.456;2023-06-14T07:33:08;34.30;50.30
9497;DHT22;4786;51.270;4.456;2023-06-14T07:35:34;34.20;51.60
9497;DHT22;4786;51.270;4.456;2023-06-14T07:38:00;34.10;49.80
9497;DHT22;4786;51.270;4.456;2023-06-14T07:40:26;33.90;49.90
9497;DHT22;4786;51.270;4.456;2023-06-14T07:42:53;33.70;50.50
9497;DHT22;4786;51.270;4.456;2023-06-14T07:45:20;32.90;49.70
9497;DHT22;4786;51.270;4.456;2023-06-14T07:47:46;32.30;51.10
9497;DHT22;4786;51.270;4.456;2023-06-14T07:50:12;32.20;51.20
9497;DHT22;4786;51.270;4.456;2023-06-14T07:52:39;31.80;51.80
9497;DHT22;4786;51.270;4.456;2023-06-14T07:55:05;31.70;52.70
9497;DHT22;4786;51.270;4.456;2023-06-14T07:57:31;31.70;53.40
9497;DHT22;4786;51.270;4.456;2023-06-14T07:59:56;31.60;53.10
9497;DHT22;4786;51.270;4.456;2023-06-14T08:02:23;31.50;52.70
9497;DHT22;4786;51.270;4.456;2023-06-14T08:04:48;31.30;53.10
9497;DHT22;4786;51.270;4.456;2023-06-14T08:07:14;31.40;54.70
9497;DHT22;4786;51.270;4.456;2023-06-14T08:09:40;31.40;53.50
9497;DHT22;4786;51.270;4.456;2023-06-14T08:12:06;30.90;54.00
9497;DHT22;4786;51.270;4.456;2023-06-14T08:14:36;30.90;54.20
9497;DHT22;4786;51.270;4.456;2023-06-14T08:17:01;31.00;54.90
9497;DHT22;4786;51.270;4.456;2023-06-14T08:19:27;30.90;55.00
9497;DHT22;4786;51.270;4.456;2023-06-14T08:21:53;31.00;54.90
9497;DHT22;4786;51.270;4.456;2023-06-14T08:24:23;30.70;54.10
9497;DHT22;4786;51.270;4.456;2023-06-14T08:26:55;30.40;55.80
9497;DHT22;4786;51.270;4.456;2023-06-14T08:29:26;30.60;58.60
9497;DHT22;4786;51.270;4.456;2023-06-14T08:31:54;30.80;58.70
9497;DHT22;4786;51.270;4.456;2023-06-14T08:34:20;31.10;56.50
9497;DHT22;4786;51.270;4.456;2023-06-14T08:36:46;31.00;55.40
9497;DHT22;4786;51.270;4.456;2023-06-14T08:39:12;31.30;56.00
9497;DHT22;4786;51.270;4.456;2023-06-14T08:41:38;30.60;54.00
9497;DHT22;4786;51.270;4.456;2023-06-14T08:44:04;30.70;56.50
9497;DHT22;4786;51.270;4.456;2023-06-14T08:46:33;30.40;54.40
9497;DHT22;4786;51.270;4.456;2023-06-14T08:48:59;30.30;56.20
9497;DHT22;4786;51.270;4.456;2023-06-14T08:51:27;30.00;56.30
9497;DHT22;4786;51.270;4.456;2023-06-14T08:53:59;30.10;56.50
9497;DHT22;4786;51.270;4.456;2023-06-14T08:56:27;30.30;56.30
9497;DHT22;4786;51.270;4.456;2023-06-14T08:58:54;30.40;56.00
9497;DHT22;4786;51.270;4.456;2023-06-14T09:01:20;30.50;55.60
9497;DHT22;4786;51.270;4.456;2023-06-14T09:03:47;30.30;57.50
9497;DHT22;4786;51.270;4.456;2023-06-14T09:06:14;30.40;55.50
9497;DHT22;4786;51.270;4.456;2023-06-14T09:08:42;30.30;56.40
9497;DHT22;4786;51.270;4.456;2023-06-14T09:11:11;29.90;55.00
9497;DHT22;4786;51.270;4.456;2023-06-14T09:13:37;30.20;56.30
9497;DHT22;4786;51.270;4.456;2023-06-14T09:16:04;30.40;57.70
9497;DHT22;4786;51.270;4.456;2023-06-14T09:18:47;30.50;58.20
9497;DHT22;4786;51.270;4.456;2023-06-14T09:21:14;30.70;55.90
9497;DHT22;4786;51.270;4.456;2023-06-14T09:23:42;30.90;55.70
9497;DHT22;4786;51.270;4.456;2023-06-14T09:26:13;30.90;53.60
9497;DHT22;4786;51.270;4.456;2023-06-14T09:28:44;30.60;54.80
9497;DHT22;4786;51.270;4.456;2023-06-14T09:31:19;30.70;54.90
9497;DHT22;4786;51.270;4.456;2023-06-14T09:33:46;30.50;54.30
9497;DHT22;4786;51.270;4.456;2023-06-14T09:36:23;30.50;53.20
9497;DHT22;4786;51.270;4.456;2023-06-14T09:38:56;30.50;53.70
9497;DHT22;4786;51.270;4.456;2023-06-14T09:41:41;30.70;54.60
9497;DHT22;4786;51.270;4.456;2023-06-14T09:44:09;31.10;55.00
9497;DHT22;4786;51.270;4.456;2023-06-14T09:46:36;31.00;53.20
9497;DHT22;4786;51.270;4.456;2023-06-14T09:49:03;31.10;53.40
9497;DHT22;4786;51.270;4.456;2023-06-14T09:51:30;31.40;50.80
9497;DHT22;4786;51.270;4.456;2023-06-14T09:54:00;31.00;51.30
9497;DHT22;4786;51.270;4.456;2023-06-14T09:56:28;31.30;51.90
9497;DHT22;4786;51.270;4.456;2023-06-14T09:58:56;31.40;52.10
9497;DHT22;4786;51.270;4.456;2023-06-14T10:01:27;31.60;49.80
9497;DHT22;4786;51.270;4.456;2023-06-14T10:03:58;31.60;50.20
9497;DHT22;4786;51.270;4.456;2023-06-14T10:06:27;31.70;50.50
9497;DHT22;4786;51.270;4.456;2023-06-14T10:08:57;31.70;50.30
9497;DHT22;4786;51.270;4.456;2023-06-14T10:11:23;31.70;50.30
9497;DHT22;4786;51.270;4.456;2023-06-14T10:13:51;31.90;51.10
9497;DHT22;4786;51.270;4.456;2023-06-14T10:16:34;31.90;50.00
9497;DHT22;4786;51.270;4.456;2023-06-14T10:19:24;31.90;51.90
9497;DHT22;4786;51.270;4.456;2023-06-14T10:24:27;32.40;51.50
9497;DHT22;4786;51.270;4.456;2023-06-14T10:26:57;32.50;49.60
9497;DHT22;4786;51.270;4.456;2023-06-14T10:29:24;32.70;49.30
9497;DHT22;4786;51.270;4.456;2023-06-14T10:31:54;32.50;49.60
9497;DHT22;4786;51.270;4.456;2023-06-14T10:34:31;32.80;47.80
9497;DHT22;4786;51.270;4.456;2023-06-14T10:37:11;32.90;48.20
9497;DHT22;4786;51.270;4.456;2023-06-14T10:39:42;32.80;49.20
9497;DHT22;4786;51.270;4.456;2023-06-14T10:42:09;32.70;48.00
9497;DHT22;4786;51.270;4.456;2023-06-14T10:44:45;32.50;47.10
9497;DHT22;4786;51.270;4.456;2023-06-14T10:47:30;32.40;48.80
9497;DHT22;4786;51.270;4.456;2023-06-14T10:50:10;32.70;47.80
9497;DHT22;4786;51.270;4.456;2023-06-14T10:52:42;32.90;49.60
9497;DHT22;4786;51.270;4.456;2023-06-14T10:55:14;33.10;48.40
9497;DHT22;4786;51.270;4.456;2023-06-14T10:57:46;33.10;46.80
9497;DHT22;4786;51.270;4.456;2023-06-14T11:00:14;33.10;47.40
9497;DHT22;4786;51.270;4.456;2023-06-14T11:02:52;32.80;49.70
9497;DHT22;4786;51.270;4.456;2023-06-14T11:05:25;32.90;48.00
9497;DHT22;4786;51.270;4.456;2023-06-14T11:10:43;32.80;46.10
9497;DHT22;4786;51.270;4.456;2023-06-14T11:13:11;32.40;46.20
9497;DHT22;4786;51.270;4.456;2023-06-14T11:15:38;32.30;46.40
9497;DHT22;4786;51.270;4.456;2023-06-14T11:18:06;32.40;47.50
9497;DHT22;4786;51.270;4.456;2023-06-14T11:20:33;32.60;50.20
9497;DHT22;4786;51.270;4.456;2023-06-14T11:23:00;32.90;47.80
9497;DHT22;4786;51.270;4.456;2023-06-14T11:25:26;32.50;46.80
9497;DHT22;4786;51.270;4.456;2023-06-14T11:27:56;32.70;47.00
9497;DHT22;4786;51.270;4.456;2023-06-14T11:30:22;33.00;48.10
9497;DHT22;4786;51.270;4.456;2023-06-14T11:32:50;33.00;46.70
9497;DHT22;4786;51.270;4.456;2023-06-14T11:35:17;33.00;48.30
9497;DHT22;4786;51.270;4.456;2023-06-14T11:37:44;33.10;48.30
9497;DHT22;4786;51.270;4.456;2023-06-14T11:40:11;33.10;47.20
9497;DHT22;4786;51.270;4.456;2023-06-14T11:42:39;33.10;47.00
9497;DHT22;4786;51.270;4.456;2023-06-14T11:45:10;33.20;48.40
9497;DHT22;4786;51.270;4.456;2023-06-14T11:47:38;33.30;47.50
9497;DHT22;4786;51.270;4.456;2023-06-14T11:50:06;33.20;45.70
9497;DHT22;4786;51.270;4.456;2023-06-14T11:52:32;33.30;46.40
9497;DHT22;4786;51.270;4.456;2023-06-14T11:54:59;33.30;46.00
9497;DHT22;4786;51.270;4.456;2023-06-14T11:57:25;33.40;46.80
9497;DHT22;4786;51.270;4.456;2023-06-14T11:59:51;33.30;45.60
9497;DHT22;4786;51.270;4.456;2023-06-14T12:02:19;33.30;46.90
9497;DHT22;4786;51.270;4.456;2023-06-14T12:04:47;33.20;46.20
9497;DHT22;4786;51.270;4.456;2023-06-14T12:07:33;33.00;45.10
9497;DHT22;4786;51.270;4.456;2023-06-14T12:12:25;32.00;45.60
9497;DHT22;4786;51.270;4.456;2023-06-14T12:14:51;31.80;46.30
9497;DHT22;4786;51.270;4.456;2023-06-14T12:17:19;31.60;45.50
9497;DHT22;4786;51.270;4.456;2023-06-14T12:19:46;31.80;46.80
9497;DHT22;4786;51.270;4.456;2023-06-14T12:22:14;31.90;46.70
9497;DHT22;4786;51.270;4.456;2023-06-14T12:24:44;32.10;45.30
9497;DHT22;4786;51.270;4.456;2023-06-14T12:27:10;32.20;44.40
9497;DHT22;4786;51.270;4.456;2023-06-14T12:29:44;31.90;45.10
9497;DHT22;4786;51.270;4.456;2023-06-14T12:32:10;31.70;44.00
9497;DHT22;4786;51.270;4.456;2023-06-14T12:34:36;31.70;44.80
9497;DHT22;4786;51.270;4.456;2023-06-14T12:37:02;31.80;45.40
9497;DHT22;4786;51.270;4.456;2023-06-14T12:39:30;31.90;45.20
9497;DHT22;4786;51.270;4.456;2023-06-14T12:41:57;31.70;45.00
9497;DHT22;4786;51.270;4.456;2023-06-14T12:44:23;32.10;44.80
9497;DHT22;4786;51.270;4.456;2023-06-14T12:46:49;32.20;44.50
9497;DHT22;4786;51.270;4.456;2023-06-14T12:49:18;32.30;45.50
9497;DHT22;4786;51.270;4.456;2023-06-14T12:51:45;32.30;43.10
9497;DHT22;4786;51.270;4.456;2023-06-14T12:54:11;32.00;42.90
9497;DHT22;4786;51.270;4.456;2023-06-14T12:56:37;32.00;43.40
9497;DHT22;4786;51.270;4.456;2023-06-14T12:59:03;32.00;43.80
9497;DHT22;4786;51.270;4.456;2023-06-14T13:01:29;31.90;43.80
9497;DHT22;4786;51.270;4.456;2023-06-14T13:03:54;32.00;44.30
9497;DHT22;4786;51.270;4.456;2023-06-14T13:06:21;32.10;43.30
9497;DHT22;4786;51.270;4.456;2023-06-14T13:08:48;31.80;42.00
9497;DHT22;4786;51.270;4.456;2023-06-14T13:11:14;32.00;45.30
9497;DHT22;4786;51.270;4.456;2023-06-14T13:13:40;31.90;44.60
9497;DHT22;4786;51.270;4.456;2023-06-14T13:16:06;31.90;44.70
9497;DHT22;4786;51.270;4.456;2023-06-14T13:18:32;31.90;43.60
9497;DHT22;4786;51.270;4.456;2023-06-14T13:20:58;31.60;41.40
9497;DHT22;4786;51.270;4.456;2023-06-14T13:23:24;31.10;41.60
9497;DHT22;4786;51.270;4.456;2023-06-14T13:25:50;30.80;43.00
9497;DHT22;4786;51.270;4.456;2023-06-14T13:28:17;30.80;43.20
9497;DHT22;4786;51.270;4.456;2023-06-14T13:30:42;30.80;44.30
9497;DHT22;4786;51.270;4.456;2023-06-14T13:33:08;30.80;43.20
9497;DHT22;4786;51.270;4.456;2023-06-14T13:35:34;31.00;44.60
9497;DHT22;4786;51.270;4.456;2023-06-14T13:38:01;31.10;44.20
9497;DHT22;4786;51.270;4.456;2023-06-14T13:40:26;31.10;43.60
9497;DHT22;4786;51.270;4.456;2023-06-14T13:42:52;31.20;45.30
9497;DHT22;4786;51.270;4.456;2023-06-14T13:45:19;31.00;44.20
9497;DHT22;4786;51.270;4.456;2023-06-14T13:47:45;31.00;43.40
9497;DHT22;4786;51.270;4.456;2023-06-14T13:50:14;30.90;43.40
9497;DHT22;4786;51.270;4.456;2023-06-14T13:52:40;31.10;45.80
9497;DHT22;4786;51.270;4.456;2023-06-14T13:55:06;31.10;45.80
9497;DHT22;4786;51.270;4.456;2023-06-14T13:57:32;31.20;44.60
9497;DHT22;4786;51.270;4.456;2023-06-14T13:59:58;31.20;44.80
9497;DHT22;4786;51.270;4.456;2023-06-14T14:02:27;31.20;44.10
9497;DHT22;4786;51.270;4.456;2023-06-14T14:04:54;31.10;45.50
9497;DHT22;4786;51.270;4.456;2023-06-14T14:07:21;31.40;47.70
9497;DHT22;4786;51.270;4.456;2023-06-14T14:09:47;31.40;45.00
9497;DHT22;4786;51.270;4.456;2023-06-14T14:12:14;31.50;44.80
9497;DHT22;4786;51.270;4.456;2023-06-14T14:14:40;31.30;44.70
9497;DHT22;4786;51.270;4.456;2023-06-14T14:17:06;31.10;44.40
9497;DHT22;4786;51.270;4.456;2023-06-14T14:19:32;30.90;44.10
9497;DHT22;4786;51.270;4.456;2023-06-14T14:21:59;30.90;45.00
9497;DHT22;4786;51.270;4.456;2023-06-14T14:24:25;30.80;44.70
9497;DHT22;4786;51.270;4.456;2023-06-14T14:26:51;30.70;44.00
9497;DHT22;4786;51.270;4.456;2023-06-14T14:29:19;30.60;46.80
9497;DHT22;4786;51.270;4.456;2023-06-14T14:31:46;30.90;46.70
9497;DHT22;4786;51.270;4.456;2023-06-14T14:34:12;31.10;45.90
9497;DHT22;4786;51.270;4.456;2023-06-14T14:36:37;31.00;45.20
9497;DHT22;4786;51.270;4.456;2023-06-14T14:39:06;30.90;43.60
9497;DHT22;4786;51.270;4.456;2023-06-14T14:41:32;30.70;45.60
9497;DHT22;4786;51.270;4.456;2023-06-14T14:43:58;30.80;45.10
9497;DHT22;4786;51.270;4.456;2023-06-14T14:46:26;30.80;44.40
9497;DHT22;4786;51.270;4.456;2023-06-14T14:48:52;30.80;45.00
9497;DHT22;4786;51.270;4.456;2023-06-14T14:51:19;30.60;44.10
9497;DHT22;4786;51.270;4.456;2023-06-14T14:53:45;30.60;45.10
9497;DHT22;4786;51.270;4.456;2023-06-14T14:56:11;30.60;45.40
9497;DHT22;4786;51.270;4.456;2023-06-14T14:58:37;30.30;45.90
9497;DHT22;4786;51.270;4.456;2023-06-14T15:01:03;30.30;47.10
9497;DHT22;4786;51.270;4.456;2023-06-14T15:03:31;30.40;45.30
9497;DHT22;4786;51.270;4.456;2023-06-14T15:05:56;30.40;45.50
9497;DHT22;4786;51.270;4.456;2023-06-14T15:08:23;30.40;45.80
9497;DHT22;4786;51.270;4.456;2023-06-14T15:10:48;30.40;45.80
9497;DHT22;4786;51.270;4.456;2023-06-14T15:13:14;30.30;45.00
9497;DHT22;4786;51.270;4.456;2023-06-14T15:15:40;30.40;47.20
9497;DHT22;4786;51.270;4.456;2023-06-14T15:18:06;30.40;47.10
9497;DHT22;4786;51.270;4.456;2023-06-14T15:20:32;30.50;47.50
9497;DHT22;4786;51.270;4.456;2023-06-14T15:22:58;30.70;46.80
9497;DHT22;4786;51.270;4.456;2023-06-14T15:25:28;30.70;48.30
9497;DHT22;4786;51.270;4.456;2023-06-14T15:27:55;30.80;46.30
9497;DHT22;4786;51.270;4.456;2023-06-14T15:30:22;30.60;46.40
9497;DHT22;4786;51.270;4.456;2023-06-14T15:32:48;30.60;47.20
9497;DHT22;4786;51.270;4.456;2023-06-14T15:35:16;30.50;45.90
9497;DHT22;4786;51.270;4.456;2023-06-14T15:37:42;30.40;46.30
9497;DHT22;4786;51.270;4.456;2023-06-14T15:40:08;30.40;47.40
9497;DHT22;4786;51.270;4.456;2023-06-14T15:42:34;30.30;46.10
9497;DHT22;4786;51.270;4.456;2023-06-14T15:45:00;30.40;47.70
9497;DHT22;4786;51.270;4.456;2023-06-14T15:47:26;30.10;46.30
9497;DHT22;4786;51.270;4.456;2023-06-14T15:49:52;30.20;47.00
9497;DHT22;4786;51.270;4.456;2023-06-14T15:52:19;30.00;46.60
9497;DHT22;4786;51.270;4.456;2023-06-14T15:54:45;30.00;47.80
9497;DHT22;4786;51.270;4.456;2023-06-14T15:57:11;30.00;46.70
9497;DHT22;4786;51.270;4.456;2023-06-14T15:59:37;29.90;47.30
9497;DHT22;4786;51.270;4.456;2023-06-14T16:02:03;29.80;47.20
9497;DHT22;4786;51.270;4.456;2023-06-14T16:04:29;29.70;46.50
9497;DHT22;4786;51.270;4.456;2023-06-14T16:06:55;29.50;47.50
9497;DHT22;4786;51.270;4.456;2023-06-14T16:09:22;29.30;48.00
9497;DHT22;4786;51.270;4.456;2023-06-14T16:11:48;29.20;49.20
9497;DHT22;4786;51.270;4.456;2023-06-14T16:14:14;29.40;49.00
9497;DHT22;4786;51.270;4.456;2023-06-14T16:16:41;29.50;48.40